CheckWX is a tool to help pilots better visualize weather data.  It is not intended as a substitute for an official pre-flight weather briefing.

09:43:45 UTC

KBMG TAF
Monroe County Airport
Bloomington, Indiana, USA
KBMG 210520Z 2106/2206 VRB04KT P6SM SCT150 FM211200 21007KT P6SM SCT200 FM211900 19008KT P6SM SCT040 BKN200 AMD LTD TO CLD VIS AND WIND TIL 211300

Sep-21@
06:00 UTC

Sep-21 @ 06:00 UTC

Sep-21@
12:00 UTC

Sep-21 @ 12:00 UTC

KBMG 210520Z 2106/2206 VRB04KT P6SM SCT150
Wind
  • Variable at 4 KTS
Cloud Levels
  • Scattered at 15,000' AGL

Sep-21@
12:00 UTC

Sep-21 @ 12:00 UTC

Sep-21@
19:00 UTC

Sep-21 @ 19:00 UTC

FM211200 21007KT P6SM SCT200

From

From Standard forecast or significant change

Wind
  • 210° at 7 KTS
Cloud Levels
  • Scattered at 20,000' AGL

Sep-21@
19:00 UTC

Sep-21 @ 19:00 UTC

Sep-22@
06:00 UTC

Sep-22 @ 06:00 UTC

FM211900 19008KT P6SM SCT040 BKN200 AMD LTD TO CLD VIS AND WIND TIL 211300

From

From Standard forecast or significant change

Wind
  • 190° at 8 KTS
Cloud Levels
  • Scattered at 4,000' AGL
  • Broken at 20,000' AGL